CDT,Max TemperatureF,Mean TemperatureF,Min TemperatureF,Max Dew PointF,MeanDew PointF,Min DewpointF,Max Humidity, Mean Humidity, Min Humidity, Max Sea Level PressureIn, Mean Sea Level PressureIn, Min Sea Level PressureIn, Max VisibilityMiles, Mean VisibilityMiles, Min VisibilityMiles, Max Wind SpeedMPH, Mean Wind SpeedMPH, Max Gust SpeedMPH,PrecipitationIn, CloudCover, Events, WindDirDegrees
2013-7-1,88,78,69,74,69,67,94,69,51,29.91,29.83,29.77,10,10,10,13,4,,0.00,1,,231
2013-7-2,87,83,79,72,68,66,76,62,50,30.01,29.96,29.89,10,10,10,13,5,21,0.00,1,,184
2013-7-3,79,76,73,73,71,69,94,88,74,30.05,30.00,29.96,10,9,2,18,8,24,1.01,6,Rain-Thunderstorm,84
2013-7-4,79,76,73,73,72,68,94,89,74,30.03,29.95,29.91,10,7,0,26,12,36,4.25,7,Fog-Rain,146
2013-7-5,79,74,70,73,71,68,94,87,76,30.12,30.06,30.02,10,8,0,18,11,24,2.18,6,Fog-Rain-Thunderstorm,146
2013-7-6,78,76,73,73,72,70,94,86,74,30.08,30.04,30.00,10,8,0,20,9,28,1.08,6,Fog-Rain,89
2013-7-7,85,79,74,76,74,72,94,82,72,30.14,30.08,30.03,10,10,7,13,7,17,0.00,4,Rain,123
2013-7-8,85,79,74,75,73,72,91,80,69,30.19,30.15,30.11,10,10,10,10,5,,0.00,2,Rain,100
2013-7-9,87,78,71,74,72,70,94,79,63,30.20,30.16,30.10,10,10,9,12,3,,0.00,2,Rain,59
2013-7-10,88,82,75,76,73,69,90,80,62,30.12,30.05,29.99,10,10,5,13,3,,0.05,2,Rain-Thunderstorm,278
2013-7-11,79,76,74,74,72,70,92,86,74,30.01,29.97,29.89,10,8,1,21,4,28,0.10,6,Rain-Thunderstorm,204
2013-7-12,86,78,72,74,71,68,94,79,62,29.93,29.90,29.85,10,10,7,10,4,,0.09,3,Rain-Thunderstorm,342
2013-7-13,86,78,71,75,72,68,94,78,66,29.99,29.93,29.87,10,10,5,15,6,20,0.11,3,Rain-Thunderstorm,102
2013-7-14,86,78,69,73,71,67,94,77,62,30.05,29.99,29.93,10,10,10,15,8,18,0.00,5,Rain-Thunderstorm,83
2013-7-15,88,81,74,74,72,70,90,80,55,30.14,30.08,30.04,10,9,0,17,8,23,1.22,5,Rain-Thunderstorm,99
2013-7-16,87,80,73,74,72,70,89,75,58,30.19,30.15,30.09,10,10,7,18,10,28,0.00,3,Rain-Thunderstorm,81
2013-7-17,90,81,73,74,72,70,89,73,52,30.22,30.17,30.09,10,10,10,13,7,,0.00,0,Rain,74
2013-7-18,88,80,73,74,70,66,86,71,52,30.14,30.09,30.02,10,10,10,13,6,,0.00,2,Rain-Thunderstorm,67
2013-7-19,85,80,73,74,72,68,89,77,59,30.09,30.04,29.97,10,10,5,14,7,,0.36,4,Rain-Thunderstorm,106
2013-7-20,85,80,75,75,73,70,89,81,66,30.03,29.99,29.95,10,9,2,21,6,25,0.54,6,Rain-Thunderstorm,182
2013-7-21,85,80,75,74,72,70,94,76,65,30.09,30.05,30.00,10,9,1,23,8,34,0.23,4,Rain-Thunderstorm,240
2013-7-22,84,76,71,77,73,68,91,83,74,30.10,30.05,30.01,10,8,1,21,8,31,1.45,6,Rain-Thunderstorm,230
2013-7-23,88,80,71,77,73,68,89,79,62,30.05,30.00,29.95,10,10,0,31,9,41,5.42,3,Rain-Thunderstorm,266
2013-7-24,88,82,77,77,73,66,89,74,57,29.95,29.92,29.88,10,10,10,17,8,25,0.00,4,Rain-Thunderstorm,289
2013-7-25,90,81,73,75,71,68,89,74,55,30.00,29.95,29.87,10,10,10,14,8,21,3.73,4,Rain,315
2013-7-26,88,80,74,74,72,70,89,73,55,30.05,30.01,29.98,10,10,10,15,6,,0.00,0,Rain,307
2013-7-27,86,82,77,75,73,68,89,77,65,29.98,29.95,29.92,10,9,2,14,5,,0.10,4,Rain-Thunderstorm,240
2013-7-28,86,80,73,75,72,66,94,83,66,30.02,29.95,29.91,10,8,1,17,9,28,1.05,5,Rain-Thunderstorm,236
2013-7-29,87,81,75,76,74,73,92,76,67,30.13,30.07,29.99,10,10,10,12,5,,0.00,1,,164
2013-7-30,88,82,76,76,74,73,91,76,62,30.17,30.13,30.08,10,10,6,13,4,,0.00,3,Rain,210
2013-7-31,87,82,78,77,74,71,82,75,64,30.11,30.06,30.01,10,10,9,15,6,18,0.01,4,Rain-Thunderstorm,238